createdAt,value
2023-03-24T00:00:41.044Z,60.65
2023-03-24T00:03:10.815Z,60.36
2023-03-24T00:05:38.724Z,60.62
2023-03-24T00:08:06.676Z,60.74
2023-03-24T00:10:37.063Z,60.52
2023-03-24T00:13:06.027Z,60.92
2023-03-24T00:15:34.413Z,60.24
2023-03-24T00:18:02.256Z,61.10
2023-03-24T00:20:32.986Z,60.90
2023-03-24T00:23:00.809Z,60.82
2023-03-24T00:25:33.828Z,60.51
2023-03-24T00:28:01.803Z,60.70
2023-03-24T00:30:31.597Z,60.81
2023-03-24T00:33:02.005Z,60.79
2023-03-24T00:35:31.173Z,60.89
2023-03-24T00:37:58.900Z,61.10
2023-03-24T00:40:28.079Z,61.39
2023-03-24T00:42:55.803Z,61.30
2023-03-24T00:45:25.447Z,61.18
2023-03-24T00:47:54.916Z,61.42
2023-03-24T00:50:27.019Z,61.19
2023-03-24T00:53:02.129Z,61.51
2023-03-24T00:55:29.865Z,61.36
2023-03-24T00:57:57.719Z,60.95
2023-03-24T01:00:27.468Z,61.41
2023-03-24T01:02:59.279Z,61.28
2023-03-24T01:05:30.216Z,61.39
2023-03-24T01:07:58.684Z,61.15
2023-03-24T01:10:28.414Z,61.12
2023-03-24T01:12:59.192Z,61.80
2023-03-24T01:15:29.628Z,61.70
2023-03-24T01:17:58.085Z,61.23
2023-03-24T01:20:26.575Z,61.29
2023-03-24T01:22:54.729Z,61.39
2023-03-24T01:25:24.263Z,61.42
2023-03-24T01:27:54.042Z,61.20
2023-03-24T01:30:23.884Z,61.88
2023-03-24T01:32:53.135Z,61.55
2023-03-24T01:35:22.460Z,61.54
2023-03-24T01:37:50.876Z,61.60
2023-03-24T01:40:21.488Z,62.07
2023-03-24T01:42:49.444Z,62.08
2023-03-24T01:45:56.729Z,62.03
2023-03-24T01:48:27.946Z,61.65
2023-03-24T01:51:00.563Z,62.23
2023-03-24T01:53:29.757Z,61.95
2023-03-24T01:55:57.569Z,62.19
2023-03-24T01:58:29.257Z,62.33
2023-03-24T02:00:59.038Z,62.34
2023-03-24T02:03:30.209Z,62.22
2023-03-24T02:05:58.697Z,62.51
2023-03-24T02:08:32.832Z,62.41
2023-03-24T02:11:03.001Z,61.98
2023-03-24T02:13:30.747Z,61.96
2023-03-24T02:16:10.224Z,62.12
2023-03-24T02:18:47.699Z,62.41
2023-03-24T02:21:48.118Z,61.95
2023-03-24T02:24:53.036Z,62.50
2023-03-24T02:27:39.055Z,62.70
2023-03-24T02:30:27.625Z,62.31
2023-03-24T02:33:31.800Z,62.21
2023-03-24T02:36:34.419Z,62.68
2023-03-24T02:39:52.933Z,62.45
2023-03-24T02:42:36.511Z,62.53
2023-03-24T02:45:17.953Z,62.18
2023-03-24T02:47:54.154Z,62.86
2023-03-24T02:50:30.678Z,62.89
2023-03-24T02:53:07.468Z,62.48
2023-03-24T02:55:41.710Z,62.46
2023-03-24T02:58:16.876Z,62.59
2023-03-24T03:00:48.553Z,62.43
2023-03-24T03:03:21.972Z,62.31
2023-03-24T03:05:55.072Z,62.89
2023-03-24T03:08:24.408Z,62.82
2023-03-24T03:10:55.689Z,63.12
2023-03-24T03:13:31.941Z,62.64
2023-03-24T03:16:05.704Z,62.55
2023-03-24T03:18:40.439Z,62.85
2023-03-24T03:21:13.330Z,62.72
2023-03-24T03:23:44.448Z,63.23
2023-03-24T03:26:16.721Z,63.03
2023-03-24T03:28:51.349Z,62.99
2023-03-24T03:31:23.853Z,62.87
2023-03-24T03:33:59.422Z,62.71
2023-03-24T03:36:32.077Z,63.55
2023-03-24T03:39:08.186Z,63.17
2023-03-24T03:41:38.639Z,63.41
2023-03-24T03:44:06.911Z,63.15
2023-03-24T03:46:36.629Z,62.92
2023-03-24T03:49:05.755Z,63.31
2023-03-24T03:51:34.360Z,63.41
2023-03-24T03:54:04.900Z,63.01
2023-03-24T03:56:36.469Z,63.47
2023-03-24T03:59:06.250Z,62.90
2023-03-24T04:01:37.604Z,63.76
2023-03-24T04:04:38.106Z,63.65
2023-03-24T04:07:13.860Z,63.35
2023-03-24T04:09:56.370Z,63.50
2023-03-24T04:12:50.459Z,63.82
2023-03-24T04:15:36.025Z,63.74
2023-03-24T04:18:29.437Z,63.66
2023-03-24T04:21:15.624Z,63.17
2023-03-24T04:23:54.392Z,63.78
2023-03-24T04:26:28.764Z,63.43
2023-03-24T04:29:09.383Z,63.93
2023-03-24T04:31:44.369Z,63.82
2023-03-24T04:34:20.782Z,64.06
2023-03-24T04:36:54.433Z,64.17
2023-03-24T04:39:28.287Z,64.12
2023-03-24T04:41:58.698Z,64.37
2023-03-24T04:44:28.021Z,63.68
2023-03-24T04:47:00.435Z,63.86
2023-03-24T04:49:28.291Z,64.17
2023-03-24T04:51:56.772Z,64.01
2023-03-24T04:54:24.888Z,64.21
2023-03-24T04:56:54.144Z,64.39
2023-03-24T04:59:22.112Z,64.52
2023-03-24T05:01:50.868Z,64.04
2023-03-24T05:04:22.100Z,64.26
2023-03-24T05:06:50.095Z,63.99
2023-03-24T05:09:21.360Z,63.92
2023-03-24T05:11:49.789Z,64.06
2023-03-24T05:14:18.250Z,64.42
2023-03-24T05:16:46.217Z,64.09
2023-03-24T05:19:14.252Z,64.38
2023-03-24T05:21:43.409Z,64.10
2023-03-24T05:24:12.453Z,64.71
2023-03-24T05:26:40.179Z,64.86
2023-03-24T05:29:08.043Z,64.55
2023-03-24T05:31:35.803Z,64.71
2023-03-24T05:34:03.647Z,64.95
2023-03-24T05:36:31.384Z,64.55
2023-03-24T05:39:00.927Z,64.88
2023-03-24T05:41:28.703Z,64.49
2023-03-24T05:43:56.563Z,64.84
2023-03-24T05:46:26.424Z,64.77
2023-03-24T05:48:54.568Z,64.94
2023-03-24T05:51:22.671Z,64.77
2023-03-24T05:53:52.099Z,64.54
2023-03-24T05:56:21.438Z,65.18
2023-03-24T05:58:49.260Z,65.10
2023-03-24T06:01:18.301Z,64.78
2023-03-24T06:03:46.251Z,65.17
2023-03-24T06:06:16.825Z,65.33
2023-03-24T06:08:46.015Z,65.01
2023-03-24T06:11:14.221Z,64.83
2023-03-24T06:13:44.731Z,65.52
2023-03-24T06:16:12.924Z,65.33
2023-03-24T06:18:42.751Z,65.10
2023-03-24T06:21:10.746Z,65.18
2023-03-24T06:23:38.986Z,65.42
2023-03-24T06:26:10.681Z,64.89
2023-03-24T06:28:39.821Z,65.72
2023-03-24T06:31:18.603Z,65.40
2023-03-24T06:33:46.770Z,65.59
2023-03-24T06:36:15.725Z,65.61
2023-03-24T06:38:45.768Z,65.42
2023-03-24T06:41:13.894Z,65.28
2023-03-24T06:43:41.627Z,65.46
2023-03-24T06:46:11.258Z,65.39
2023-03-24T06:48:39.754Z,65.39
2023-03-24T06:51:08.323Z,65.78
2023-03-24T06:53:37.797Z,65.59
2023-03-24T06:56:06.272Z,65.99
2023-03-24T06:58:35.063Z,65.74
2023-03-24T07:01:03.122Z,65.55
2023-03-24T07:03:33.234Z,65.80
2023-03-24T07:06:01.415Z,65.82
2023-03-24T07:08:37.209Z,65.66
2023-03-24T07:11:08.712Z,65.91
2023-03-24T07:13:38.178Z,65.88
2023-03-24T07:16:06.993Z,65.94
2023-03-24T07:18:37.152Z,66.06
2023-03-24T07:21:05.236Z,65.70
2023-03-24T07:23:33.192Z,65.99
2023-03-24T07:26:01.206Z,66.03
2023-03-24T07:28:28.972Z,66.07
2023-03-24T07:30:56.971Z,66.26
2023-03-24T07:33:25.291Z,65.96
2023-03-24T07:35:57.413Z,66.34
2023-03-24T07:38:25.531Z,66.17
2023-03-24T07:40:53.404Z,66.11
2023-03-24T07:43:21.908Z,66.13
2023-03-24T07:45:49.966Z,66.27
2023-03-24T07:48:18.035Z,66.12
2023-03-24T07:50:46.080Z,66.20
2023-03-24T07:53:19.983Z,66.14
2023-03-24T07:55:48.441Z,66.16
2023-03-24T07:58:16.864Z,66.35
2023-03-24T08:00:44.985Z,66.58
2023-03-24T08:03:15.442Z,66.31
2023-03-24T08:05:44.180Z,66.42
2023-03-24T08:08:12.060Z,66.50
2023-03-24T08:10:42.675Z,66.46
2023-03-24T08:13:10.513Z,66.46
2023-03-24T08:15:39.040Z,66.51
2023-03-24T08:18:07.060Z,66.70
2023-03-24T08:20:35.183Z,66.54
2023-03-24T08:23:04.824Z,66.77
2023-03-24T08:25:33.176Z,66.57
2023-03-24T08:28:02.370Z,66.88
2023-03-24T08:30:30.635Z,66.73
2023-03-24T08:33:00.967Z,66.56
2023-03-24T08:35:31.550Z,66.97
2023-03-24T08:38:01.192Z,66.84
2023-03-24T08:40:31.846Z,66.80
2023-03-24T08:43:03.306Z,66.93
2023-03-24T08:45:33.649Z,66.84
2023-03-24T08:48:06.144Z,66.53
2023-03-24T08:50:38.192Z,66.64
2023-03-24T08:53:06.097Z,66.86
2023-03-24T08:55:34.599Z,67.17
2023-03-24T08:58:03.838Z,66.93
2023-03-24T09:00:31.660Z,66.96
2023-03-24T09:03:01.344Z,66.92
2023-03-24T09:05:43.569Z,66.76
2023-03-24T09:08:12.526Z,66.98
2023-03-24T09:10:42.772Z,67.18
2023-03-24T09:13:11.898Z,67.06
2023-03-24T09:15:40.089Z,66.54
2023-03-24T09:18:10.489Z,66.66
2023-03-24T09:20:38.271Z,66.57
2023-03-24T09:23:06.530Z,66.75
2023-03-24T09:25:34.346Z,67.28
2023-03-24T09:28:02.510Z,67.22
2023-03-24T09:30:34.004Z,67.29
2023-03-24T09:33:02.949Z,67.10
2023-03-24T09:35:31.275Z,66.87
2023-03-24T09:37:59.324Z,67.46
2023-03-24T09:40:29.268Z,67.72
2023-03-24T09:43:01.172Z,67.46
2023-03-24T09:45:35.038Z,67.06
2023-03-24T09:48:09.966Z,67.91
2023-03-24T09:50:43.129Z,67.48
2023-03-24T09:53:21.398Z,67.36
2023-03-24T09:55:50.470Z,67.61
2023-03-24T09:58:20.018Z,67.36
2023-03-24T10:00:49.505Z,67.64
2023-03-24T10:03:21.700Z,67.81
2023-03-24T10:05:54.282Z,67.27
2023-03-24T10:08:30.694Z,67.57
2023-03-24T10:11:04.844Z,67.40
2023-03-24T10:13:45.083Z,67.40
2023-03-24T10:16:23.428Z,67.65
2023-03-24T10:19:00.162Z,67.69
2023-03-24T10:21:31.726Z,67.40
2023-03-24T10:24:07.798Z,67.28
2023-03-24T10:26:43.636Z,67.47
2023-03-24T10:29:22.925Z,67.66
2023-03-24T10:31:55.478Z,67.32
2023-03-24T10:34:27.428Z,67.54
2023-03-24T10:36:57.678Z,67.56
2023-03-24T10:39:38.057Z,67.53
2023-03-24T10:42:16.898Z,67.87
2023-03-24T10:44:45.277Z,67.29
2023-03-24T10:47:15.887Z,67.63
2023-03-24T10:49:54.894Z,68.09
2023-03-24T10:52:24.568Z,67.18
2023-03-24T10:54:57.545Z,67.29
2023-03-24T10:57:27.051Z,66.74
2023-03-24T10:59:57.851Z,67.38
2023-03-24T11:02:30.623Z,67.03
2023-03-24T11:05:00.208Z,67.03
2023-03-24T11:07:33.596Z,67.16
2023-03-24T11:10:06.397Z,67.21
2023-03-24T11:12:36.715Z,67.17
2023-03-24T11:15:21.218Z,67.76
2023-03-24T11:17:57.277Z,67.56
2023-03-24T11:20:33.066Z,67.33
2023-03-24T11:23:03.761Z,67.07
2023-03-24T11:25:34.546Z,67.67
2023-03-24T11:28:05.206Z,67.30
2023-03-24T11:30:37.135Z,67.19
2023-03-24T11:33:07.274Z,67.07
2023-03-24T11:35:41.835Z,67.31
2023-03-24T11:38:17.496Z,66.95
2023-03-24T11:40:54.807Z,67.24
2023-03-24T11:43:23.121Z,67.09
2023-03-24T11:46:00.067Z,67.74
2023-03-24T11:48:40.482Z,67.14
2023-03-24T11:51:12.508Z,67.01
2023-03-24T11:53:45.671Z,67.18
2023-03-24T11:56:19.046Z,67.54
2023-03-24T11:58:50.964Z,67.70
2023-03-24T12:01:28.520Z,67.27
2023-03-24T12:04:16.362Z,67.15
2023-03-24T12:06:56.808Z,67.53
2023-03-24T12:09:32.484Z,67.27
2023-03-24T12:12:17.675Z,66.96
2023-03-24T12:15:20.664Z,67.38
2023-03-24T12:18:05.852Z,67.22
2023-03-24T12:20:38.879Z,67.19
2023-03-24T12:23:14.129Z,66.92
2023-03-24T12:25:58.342Z,67.06
2023-03-24T12:28:52.739Z,67.15
2023-03-24T12:31:59.929Z,66.96
2023-03-24T12:34:59.379Z,66.82
2023-03-24T12:37:41.237Z,67.18
2023-03-24T12:40:35.899Z,67.00
2023-03-24T12:43:16.268Z,66.76
2023-03-24T12:45:49.482Z,67.00
2023-03-24T12:48:42.052Z,67.34
2023-03-24T12:51:22.189Z,66.98
2023-03-24T12:54:06.453Z,66.96
2023-03-24T12:56:39.027Z,66.89
2023-03-24T12:59:14.620Z,66.75
2023-03-24T13:01:44.641Z,67.18
2023-03-24T13:04:17.036Z,66.84
2023-03-24T13:06:49.907Z,67.19
2023-03-24T13:09:33.384Z,66.69
2023-03-24T13:12:06.843Z,67.52
2023-03-24T13:14:50.732Z,67.03
2023-03-24T13:17:22.872Z,66.95
2023-03-24T13:19:52.721Z,66.92
2023-03-24T13:22:24.256Z,66.81
2023-03-24T13:24:56.283Z,66.72
2023-03-24T13:27:25.830Z,66.71
2023-03-24T13:30:09.322Z,66.90
2023-03-24T13:32:42.252Z,67.36
2023-03-24T13:35:19.459Z,67.20
2023-03-24T13:37:51.868Z,66.99
2023-03-24T13:40:26.462Z,67.21
2023-03-24T13:42:57.040Z,67.41
2023-03-24T13:45:32.627Z,67.09
2023-03-24T13:48:19.303Z,67.01
2023-03-24T13:50:59.012Z,67.18
2023-03-24T13:53:37.855Z,67.47
2023-03-24T13:56:10.020Z,67.36
2023-03-24T13:59:11.340Z,67.44
2023-03-24T14:01:40.886Z,66.83
2023-03-24T14:04:29.740Z,67.34
2023-03-24T14:06:59.757Z,67.53
2023-03-24T14:09:29.380Z,66.89
2023-03-24T14:12:19.557Z,66.97
2023-03-24T14:15:17.810Z,66.94
2023-03-24T14:17:48.161Z,67.00
2023-03-24T14:20:36.132Z,67.59
2023-03-24T14:23:05.273Z,67.34
2023-03-24T14:25:34.315Z,67.68
2023-03-24T14:28:20.962Z,67.19
2023-03-24T14:31:04.249Z,67.53
2023-03-24T14:33:32.273Z,67.12
2023-03-24T14:36:06.351Z,67.55
2023-03-24T14:38:37.841Z,67.85
2023-03-24T14:41:13.971Z,67.61
2023-03-24T14:43:58.416Z,68.19
2023-03-24T14:46:44.760Z,67.43
2023-03-24T14:49:24.674Z,67.68
2023-03-24T14:52:04.881Z,67.67
2023-03-24T14:54:39.557Z,67.47
2023-03-24T14:57:08.810Z,67.81
2023-03-24T14:59:46.700Z,68.31
2023-03-24T15:02:35.891Z,67.68
2023-03-24T15:05:20.512Z,67.91
2023-03-24T15:08:04.673Z,68.29
2023-03-24T15:10:40.568Z,68.16
2023-03-24T15:13:29.309Z,67.63
2023-03-24T15:15:59.969Z,68.14
2023-03-24T15:18:28.449Z,67.84
2023-03-24T15:20:56.281Z,68.30
2023-03-24T15:23:28.140Z,68.12
2023-03-24T15:25:56.627Z,68.28
2023-03-24T15:28:27.836Z,68.33
2023-03-24T15:30:59.722Z,68.05
2023-03-24T15:33:30.912Z,68.17
2023-03-24T15:36:00.940Z,68.35
2023-03-24T15:38:30.763Z,68.39
2023-03-24T15:41:02.143Z,68.69
2023-03-24T15:43:31.144Z,68.82
2023-03-24T15:46:11.748Z,68.33
2023-03-24T15:49:06.465Z,68.55
2023-03-24T15:51:50.973Z,68.99
2023-03-24T15:54:24.142Z,68.46
2023-03-24T15:57:13.822Z,68.92
2023-03-24T15:59:46.863Z,68.64
2023-03-24T16:02:25.581Z,68.81
2023-03-24T16:05:10.688Z,68.29
2023-03-24T16:07:40.828Z,68.95
2023-03-24T16:10:29.057Z,68.94
2023-03-24T16:12:56.876Z,69.01
2023-03-24T16:15:24.749Z,68.50
2023-03-24T16:17:54.140Z,68.70
2023-03-24T16:20:23.352Z,69.29
2023-03-24T16:22:51.220Z,68.80
2023-03-24T16:25:19.105Z,69.59
2023-03-24T16:27:46.898Z,68.89
2023-03-24T16:30:21.773Z,69.24
2023-03-24T16:32:49.613Z,68.90
2023-03-24T16:35:18.857Z,69.75
2023-03-24T16:37:47.098Z,68.93
2023-03-24T16:40:41.639Z,69.54
2023-03-24T16:43:09.627Z,69.36
2023-03-24T16:45:37.389Z,69.41
2023-03-24T16:48:05.727Z,69.82
2023-03-24T16:50:37.584Z,69.66
2023-03-24T16:53:05.728Z,70.14
2023-03-24T16:55:33.658Z,70.03
2023-03-24T16:58:01.468Z,69.59
2023-03-24T17:00:30.037Z,69.88
2023-03-24T17:02:59.711Z,69.89
2023-03-24T17:05:30.205Z,69.54
2023-03-24T17:07:59.593Z,69.91
2023-03-24T17:10:28.475Z,69.77
2023-03-24T17:12:57.738Z,70.31
2023-03-24T17:15:27.583Z,70.58
2023-03-24T17:17:56.176Z,69.72
2023-03-24T17:20:26.520Z,69.74
2023-03-24T17:22:56.935Z,70.17
2023-03-24T17:25:29.263Z,70.55
2023-03-24T17:27:58.180Z,70.49
2023-03-24T17:30:27.957Z,70.43
2023-03-24T17:32:55.770Z,70.59
2023-03-24T17:35:25.101Z,70.67
2023-03-24T17:37:52.873Z,70.35
2023-03-24T17:40:21.789Z,70.60
2023-03-24T17:42:51.033Z,70.81
2023-03-24T17:45:20.345Z,71.07
2023-03-24T17:47:48.223Z,71.07
2023-03-24T17:50:15.968Z,70.88
2023-03-24T17:52:46.751Z,70.99
2023-03-24T17:55:16.392Z,71.34
2023-03-24T17:57:44.684Z,70.99
2023-03-24T18:00:16.375Z,71.36
2023-03-24T18:02:44.993Z,70.84
2023-03-24T18:05:13.523Z,71.10
2023-03-24T18:07:41.634Z,71.21
2023-03-24T18:10:10.619Z,71.65
2023-03-24T18:12:38.484Z,71.86
2023-03-24T18:15:07.741Z,71.49
2023-03-24T18:17:37.251Z,71.46
2023-03-24T18:20:10.845Z,71.96
2023-03-24T18:22:40.884Z,72.10
2023-03-24T18:25:10.160Z,71.65
2023-03-24T18:27:38.923Z,72.23
2023-03-24T18:30:09.314Z,72.12
2023-03-24T18:32:39.280Z,72.45
2023-03-24T18:35:08.832Z,72.26
2023-03-24T18:37:36.922Z,72.49
2023-03-24T18:40:08.555Z,72.67
2023-03-24T18:42:37.068Z,72.51
2023-03-24T18:45:05.657Z,72.29
2023-03-24T18:47:33.635Z,72.54
2023-03-24T18:50:02.931Z,72.72
2023-03-24T18:52:30.850Z,72.90
2023-03-24T18:54:59.576Z,72.44
2023-03-24T18:57:27.412Z,72.74
2023-03-24T18:59:55.286Z,72.54
2023-03-24T19:02:23.048Z,72.93
2023-03-24T19:04:50.862Z,72.61
2023-03-24T19:07:26.359Z,73.21
2023-03-24T19:09:54.366Z,72.78
2023-03-24T19:12:22.154Z,72.95
2023-03-24T19:14:50.728Z,73.46
2023-03-24T19:17:18.480Z,73.31
2023-03-24T19:19:46.310Z,73.47
2023-03-24T19:22:16.341Z,73.12
2023-03-24T19:24:45.591Z,73.53
2023-03-24T19:27:13.635Z,73.36
2023-03-24T19:29:41.691Z,73.35
2023-03-24T19:32:09.444Z,73.23
2023-03-24T19:34:37.168Z,73.72
2023-03-24T19:37:05.596Z,73.28
2023-03-24T19:39:34.429Z,73.51
2023-03-24T19:42:07.677Z,73.83
2023-03-24T19:44:35.849Z,74.05
2023-03-24T19:47:03.802Z,73.53
2023-03-24T19:49:32.291Z,73.83
2023-03-24T19:52:01.525Z,73.69
2023-03-24T19:54:29.222Z,74.24
2023-03-24T19:56:57.078Z,74.11
2023-03-24T19:59:26.404Z,74.24
2023-03-24T20:01:54.224Z,73.90
2023-03-24T20:04:22.168Z,73.81
2023-03-24T20:06:49.890Z,74.39
2023-03-24T20:09:17.822Z,73.84
2023-03-24T20:11:45.707Z,74.44
2023-03-24T20:14:13.541Z,74.25
2023-03-24T20:16:42.781Z,74.40
2023-03-24T20:19:10.577Z,74.28
2023-03-24T20:21:38.460Z,74.69
2023-03-24T20:24:06.569Z,74.17
2023-03-24T20:26:34.466Z,74.63
2023-03-24T20:29:02.622Z,74.45
2023-03-24T20:31:30.568Z,74.76
2023-03-24T20:33:59.785Z,74.34
2023-03-24T20:36:27.582Z,74.87
2023-03-24T20:38:59.348Z,74.29
2023-03-24T20:41:27.517Z,74.74
2023-03-24T20:43:55.476Z,74.32
2023-03-24T20:46:23.517Z,74.97
2023-03-24T20:48:51.503Z,74.76
2023-03-24T20:51:20.725Z,74.87
2023-03-24T20:53:49.891Z,75.15
2023-03-24T20:56:18.936Z,74.51
2023-03-24T20:58:47.026Z,75.20
2023-03-24T21:01:20.512Z,75.37
2023-03-24T21:03:48.804Z,75.31
2023-03-24T21:06:17.388Z,74.82
2023-03-24T21:08:46.528Z,74.55
2023-03-24T21:11:14.762Z,74.94
2023-03-24T21:13:42.493Z,75.48
2023-03-24T21:16:12.678Z,74.88
2023-03-24T21:18:42.660Z,75.18
2023-03-24T21:21:12.336Z,75.28
2023-03-24T21:23:41.488Z,75.30
2023-03-24T21:26:13.468Z,75.25
2023-03-24T21:28:43.300Z,75.49
2023-03-24T21:31:12.809Z,75.32
2023-03-24T21:33:43.327Z,75.12
2023-03-24T21:36:11.917Z,75.23
2023-03-24T21:38:40.072Z,75.28
2023-03-24T21:41:08.667Z,74.97
2023-03-24T21:43:40.507Z,74.98
2023-03-24T21:46:14.968Z,74.92
2023-03-24T21:48:50.092Z,75.84
2023-03-24T21:51:20.288Z,75.44
2023-03-24T21:53:48.780Z,75.24
2023-03-24T21:56:16.588Z,75.16
2023-03-24T21:58:46.383Z,75.63
2023-03-24T22:01:14.689Z,75.76
2023-03-24T22:03:42.526Z,75.08
2023-03-24T22:06:11.478Z,75.67
2023-03-24T22:08:43.529Z,75.43
2023-03-24T22:11:15.379Z,75.36
2023-03-24T22:13:43.394Z,75.72
2023-03-24T22:16:12.652Z,75.54
2023-03-24T22:18:40.472Z,75.83
2023-03-24T22:21:10.571Z,75.52
2023-03-24T22:23:40.548Z,75.35
2023-03-24T22:26:11.725Z,75.94
2023-03-24T22:28:39.931Z,75.72
2023-03-24T22:31:10.483Z,75.62
2023-03-24T22:33:39.973Z,75.60
2023-03-24T22:36:08.980Z,75.69
2023-03-24T22:38:37.003Z,75.62
2023-03-24T22:41:07.176Z,75.49
2023-03-24T22:43:36.346Z,75.57
2023-03-24T22:46:04.755Z,75.77
2023-03-24T22:48:32.606Z,75.53
2023-03-24T22:51:02.268Z,75.92
2023-03-24T22:53:31.163Z,76.15
2023-03-24T22:55:59.012Z,76.13
2023-03-24T22:58:27.023Z,75.62
2023-03-24T23:00:56.800Z,75.84
2023-03-24T23:03:24.770Z,75.75
2023-03-24T23:05:52.819Z,76.01
2023-03-24T23:08:22.182Z,75.77
2023-03-24T23:10:50.268Z,76.12
2023-03-24T23:13:18.032Z,75.86
2023-03-24T23:15:48.465Z,75.95
2023-03-24T23:18:16.811Z,76.19
2023-03-24T23:20:44.761Z,76.04
2023-03-24T23:23:13.419Z,76.15
2023-03-24T23:25:44.077Z,76.23
2023-03-24T23:28:12.746Z,76.12
2023-03-24T23:30:41.234Z,76.07
2023-03-24T23:33:14.653Z,76.14
2023-03-24T23:35:42.707Z,76.21
2023-03-24T23:38:10.549Z,76.41
2023-03-24T23:40:38.430Z,76.27
2023-03-24T23:43:07.512Z,76.03
2023-03-24T23:45:35.382Z,76.44
2023-03-24T23:48:03.425Z,76.34
2023-03-24T23:50:31.188Z,76.27
2023-03-24T23:52:59.236Z,76.65
2023-03-24T23:55:28.090Z,76.45
2023-03-24T23:57:56.529Z,76.13
